Time;durP1;ratioP1;P1;durP2;ratioP2;P2;SDS_P1;SDS_P2;PMS_P1;PMS_P2;Temp;Humidity;BMP_temperature;BMP_pressure;BME280_temperature;BME280_humidity;BME280_pressure;Samples;Min_cycle;Max_cycle;Signal;HPM_P1;HPM_P2
2023/12/01 00:01:27;;;;;;;16.90;15.10;;;;;;;;;;85134;214;3027192;-36
2023/12/01 00:04:07;;;;;;;16.60;14.80;;;;;;;;;;85130;214;3031083;-36
2023/12/01 00:06:47;;;;;;;16.10;14.30;;;;;;;;;;85097;214;3031282;-36
2023/12/01 00:09:28;;;;;;;15.80;14.10;;;;;;;;;;85120;214;3028451;-36
2023/12/01 00:12:06;;;;;;;16.60;14.60;;;;;;;;;;85108;215;3028752;-36
2023/12/01 00:14:47;;;;;;;16.20;14.50;;;;;;;;;;85132;215;3031145;-38
2023/12/01 00:17:27;;;;;;;15.40;13.80;;;;;;;;;;85093;215;3031601;-40
2023/12/01 00:20:09;;;;;;;16.40;14.60;;;;;;;;;;85115;215;3028257;-40
2023/12/01 00:22:50;;;;;;;16.50;14.70;;;;;;;;;;85118;215;3027469;-41
2023/12/01 00:25:31;;;;;;;16.00;14.00;;;;;;;;;;85120;215;3030593;-40
2023/12/01 00:28:12;;;;;;;17.60;14.90;;;;;;;;;;85106;214;3031690;-41
2023/12/01 00:30:50;;;;;;;16.10;14.30;;;;;;;;;;85137;215;3028211;-40
2023/12/01 00:33:28;;;;;;;17.00;14.90;;;;;;;;;;85126;214;3027648;-40
2023/12/01 00:36:10;;;;;;;16.50;14.60;;;;;;;;;;85088;214;3031331;-41
2023/12/01 00:38:51;;;;;;;16.30;14.50;;;;;;;;;;85067;215;3031606;-40
2023/12/01 00:41:32;;;;;;;16.80;15.00;;;;;;;;;;85102;215;3028134;-40
2023/12/01 00:44:16;;;;;;;16.30;14.60;;;;;;;;;;85137;215;3027394;-41
2023/12/01 00:46:58;;;;;;;16.90;15.10;;;;;;;;;;85094;215;3030494;-40
2023/12/01 00:49:41;;;;;;;16.40;14.60;;;;;;;;;;85109;215;3032909;-41
2023/12/01 00:52:24;;;;;;;17.00;15.20;;;;;;;;;;85109;215;3028157;-41
2023/12/01 00:55:08;;;;;;;17.90;16.00;;;;;;;;;;85128;215;3027181;-40
2023/12/01 00:57:47;;;;;;;18.20;16.20;;;;;;;;;;85081;215;3030724;-36
2023/12/01 01:00:25;;;;;;;18.10;16.10;;;;;;;;;;85096;215;3031116;-36
2023/12/01 01:03:04;;;;;;;18.40;16.50;;;;;;;;;;85122;215;3028190;-36
2023/12/01 01:05:44;;;;;;;18.50;16.20;;;;;;;;;;84990;215;3027386;-36
2023/12/01 01:08:25;;;;;;;18.90;16.50;;;;;;;;;;85049;215;3031074;-41
2023/12/01 01:11:04;;;;;;;18.20;16.30;;;;;;;;;;85120;214;3031904;-41
2023/12/01 01:13:56;;;;;;;18.40;16.40;;;;;;;;;;85162;214;3028187;-41
2023/12/01 01:16:37;;;;;;;17.60;15.70;;;;;;;;;;85128;214;3027146;-42
2023/12/01 01:19:14;;;;;;;17.90;15.90;;;;;;;;;;85096;214;3032200;-41
2023/12/01 01:21:52;;;;;;;16.90;15.00;;;;;;;;;;85137;214;3031755;-40
2023/12/01 01:24:34;;;;;;;17.50;15.60;;;;;;;;;;85114;214;3027920;-41
2023/12/01 01:27:12;;;;;;;17.30;15.50;;;;;;;;;;85142;214;3028053;-41
2023/12/01 01:29:49;;;;;;;17.70;15.80;;;;;;;;;;85106;214;3030529;-40
2023/12/01 01:32:28;;;;;;;16.90;15.10;;;;;;;;;;85123;214;3031792;-40
2023/12/01 01:35:09;;;;;;;17.60;15.50;;;;;;;;;;85118;214;3028718;-40
2023/12/01 01:37:50;;;;;;;17.10;15.00;;;;;;;;;;85108;214;3026992;-40
2023/12/01 01:40:31;;;;;;;17.60;15.80;;;;;;;;;;85112;214;3038044;-40
2023/12/01 01:43:16;;;;;;;17.20;15.20;;;;;;;;;;85114;214;3031576;-40
2023/12/01 01:46:04;;;;;;;17.90;15.60;;;;;;;;;;85120;214;3028889;-40
2023/12/01 01:48:45;;;;;;;18.30;16.10;;;;;;;;;;85129;214;3027653;-40
2023/12/01 01:51:26;;;;;;;17.40;15.50;;;;;;;;;;85109;214;3030643;-40
2023/12/01 01:54:07;;;;;;;17.10;15.30;;;;;;;;;;85114;214;3031656;-40
2023/12/01 01:56:47;;;;;;;16.40;14.60;;;;;;;;;;85113;214;3028284;-40
2023/12/01 01:59:29;;;;;;;16.90;15.10;;;;;;;;;;85115;214;3027122;-40
2023/12/01 02:02:06;;;;;;;17.50;15.10;;;;;;;;;;85109;214;3031021;-41
2023/12/01 02:04:44;;;;;;;17.10;14.80;;;;;;;;;;85089;214;3031710;-40
2023/12/01 02:07:35;;;;;;;16.50;14.70;;;;;;;;;;85136;214;3028867;-41
2023/12/01 02:10:16;;;;;;;16.60;14.80;;;;;;;;;;85097;214;3027917;-37
2023/12/01 02:12:54;;;;;;;17.50;15.10;;;;;;;;;;85130;214;3030438;-36
2023/12/01 02:15:41;;;;;;;16.20;14.50;;;;;;;;;;85112;214;3031360;-36
2023/12/01 02:18:29;;;;;;;17.20;15.30;;;;;;;;;;85130;214;3028641;-36
2023/12/01 02:21:08;;;;;;;16.60;14.50;;;;;;;;;;85130;214;3034665;-36
2023/12/01 02:23:45;;;;;;;16.80;14.90;;;;;;;;;;85115;214;3030746;-36
2023/12/01 02:26:22;;;;;;;16.90;14.90;;;;;;;;;;85191;213;3031473;-36
2023/12/01 02:29:04;;;;;;;16.40;14.60;;;;;;;;;;85162;213;3029569;-36
2023/12/01 02:31:49;;;;;;;17.10;15.20;;;;;;;;;;85224;213;3034630;-36
2023/12/01 02:34:30;;;;;;;16.00;14.30;;;;;;;;;;85169;213;3030734;-36
2023/12/01 02:37:08;;;;;;;17.60;15.30;;;;;;;;;;85138;214;3031699;-36
2023/12/01 02:39:45;;;;;;;16.50;14.80;;;;;;;;;;85130;214;3028055;-36
2023/12/01 02:42:26;;;;;;;16.40;14.50;;;;;;;;;;85142;214;3026990;-36
2023/12/01 02:45:07;;;;;;;16.40;14.50;;;;;;;;;;85144;214;3030750;-36
2023/12/01 02:47:47;;;;;;;15.60;13.60;;;;;;;;;;85115;214;3031798;-36
2023/12/01 02:50:24;;;;;;;16.40;14.70;;;;;;;;;;85060;214;3028998;-36
2023/12/01 02:53:06;;;;;;;16.20;14.20;;;;;;;;;;85153;214;3027415;-36
2023/12/01 02:55:46;;;;;;;16.10;14.30;;;;;;;;;;85127;214;3031351;-36
2023/12/01 02:58:29;;;;;;;15.80;13.90;;;;;;;;;;85104;214;3031246;-36
2023/12/01 03:01:09;;;;;;;16.60;14.50;;;;;;;;;;85089;214;3028415;-36
2023/12/01 03:03:51;;;;;;;15.70;14.00;;;;;;;;;;85158;214;3027145;-36
2023/12/01 03:06:32;;;;;;;15.70;14.00;;;;;;;;;;85074;214;3030372;-36
2023/12/01 03:09:17;;;;;;;15.80;14.10;;;;;;;;;;85125;214;3032214;-36
2023/12/01 03:11:56;;;;;;;16.20;14.00;;;;;;;;;;85110;214;3029457;-36
2023/12/01 03:14:36;;;;;;;16.00;14.30;;;;;;;;;;85122;214;3027605;-36
2023/12/01 03:17:25;;;;;;;15.60;13.90;;;;;;;;;;85077;214;3030651;-36
2023/12/01 03:20:10;;;;;;;15.40;13.80;;;;;;;;;;85068;214;3031363;-36
2023/12/01 03:22:51;;;;;;;15.70;14.00;;;;;;;;;;85176;214;3034969;-36
2023/12/01 03:25:29;;;;;;;16.20;14.50;;;;;;;;;;85187;213;3027492;-36
2023/12/01 03:28:10;;;;;;;15.50;13.90;;;;;;;;;;85261;213;3031417;-36
2023/12/01 03:30:49;;;;;;;16.00;14.30;;;;;;;;;;85135;213;3032056;-36
2023/12/01 03:33:30;;;;;;;15.90;14.10;;;;;;;;;;85141;214;3028617;-36
2023/12/01 03:36:10;;;;;;;15.70;14.00;;;;;;;;;;85138;214;3027610;-36
2023/12/01 03:38:50;;;;;;;16.00;13.90;;;;;;;;;;85158;214;3030731;-36
2023/12/01 03:41:31;;;;;;;15.90;13.80;;;;;;;;;;85156;214;3031404;-36
2023/12/01 03:44:13;;;;;;;16.60;14.10;;;;;;;;;;85121;214;3028415;-35
2023/12/01 03:47:00;;;;;;;16.40;14.00;;;;;;;;;;85115;214;3027628;-35
2023/12/01 03:49:39;;;;;;;16.40;14.60;;;;;;;;;;85164;214;3032181;-35
2023/12/01 03:52:17;;;;;;;16.30;14.30;;;;;;;;;;85105;214;3031215;-35
2023/12/01 03:54:59;;;;;;;15.80;14.10;;;;;;;;;;85151;214;3029586;-35
2023/12/01 03:57:43;;;;;;;16.60;14.40;;;;;;;;;;85113;214;3027400;-35
2023/12/01 04:00:32;;;;;;;16.50;14.70;;;;;;;;;;85147;214;3031403;-35
2023/12/01 04:03:11;;;;;;;15.60;13.90;;;;;;;;;;85111;214;3032535;-35
2023/12/01 04:05:51;;;;;;;17.00;14.40;;;;;;;;;;85087;214;3029025;-35
2023/12/01 04:08:31;;;;;;;16.10;14.40;;;;;;;;;;85096;214;3027638;-35
2023/12/01 04:11:10;;;;;;;16.10;13.70;;;;;;;;;;85109;214;3031162;-35
2023/12/01 04:13:53;;;;;;;15.90;13.70;;;;;;;;;;85126;214;3031591;-35
2023/12/01 04:16:35;;;;;;;17.10;14.90;;;;;;;;;;85259;214;3027930;-35
2023/12/01 04:19:14;;;;;;;16.50;14.60;;;;;;;;;;85319;214;3027598;-35
2023/12/01 04:21:54;;;;;;;17.10;14.70;;;;;;;;;;85345;214;3030852;-35
2023/12/01 04:24:33;;;;;;;17.10;13.80;;;;;;;;;;84156;214;3031977;-35
2023/12/01 04:27:16;;;;;;;16.60;14.60;;;;;;;;;;85143;214;3028390;-35
2023/12/01 04:30:00;;;;;;;17.60;14.70;;;;;;;;;;85158;214;3027422;-36
2023/12/01 04:32:40;;;;;;;17.20;14.50;;;;;;;;;;85135;214;3031450;-35
2023/12/01 04:35:19;;;;;;;16.40;14.50;;;;;;;;;;85139;214;3033135;-35
2023/12/01 04:37:57;;;;;;;16.30;13.90;;;;;;;;;;85128;214;3028276;-35
2023/12/01 04:40:39;;;;;;;16.80;14.50;;;;;;;;;;85098;214;3027724;-35
2023/12/01 04:43:17;;;;;;;17.60;14.80;;;;;;;;;;85088;214;3031051;-35
2023/12/01 04:45:54;;;;;;;17.50;15.20;;;;;;;;;;85088;214;3031966;-35
2023/12/01 04:48:38;;;;;;;16.50;14.40;;;;;;;;;;85121;214;3027957;-35
2023/12/01 04:51:25;;;;;;;17.50;14.90;;;;;;;;;;85137;214;3027015;-35
2023/12/01 04:54:07;;;;;;;18.20;14.90;;;;;;;;;;85142;214;3030523;-35
2023/12/01 04:56:47;;;;;;;17.00;14.50;;;;;;;;;;85139;214;3031068;-35
2023/12/01 04:59:29;;;;;;;16.80;14.70;;;;;;;;;;85168;214;3028877;-35
2023/12/01 05:02:13;;;;;;;17.80;14.70;;;;;;;;;;85163;214;3027391;-35
2023/12/01 05:04:50;;;;;;;16.70;14.30;;;;;;;;;;85133;214;3031391;-35
2023/12/01 05:07:33;;;;;;;17.50;14.90;;;;;;;;;;85135;214;3031893;-35
2023/12/01 05:10:19;;;;;;;17.20;14.70;;;;;;;;;;85153;214;3028720;-35
2023/12/01 05:13:04;;;;;;;18.40;14.70;;;;;;;;;;85095;214;3027230;-35
2023/12/01 05:15:42;;;;;;;17.10;13.80;;;;;;;;;;85111;214;3031934;-35
2023/12/01 05:18:24;;;;;;;17.30;14.10;;;;;;;;;;85138;214;3031408;-35
2023/12/01 05:21:07;;;;;;;16.50;14.60;;;;;;;;;;85128;214;3028208;-35
2023/12/01 05:23:53;;;;;;;16.90;14.10;;;;;;;;;;85090;214;3026970;-35
2023/12/01 05:26:35;;;;;;;17.20;15.20;;;;;;;;;;85223;213;3030992;-39
2023/12/01 05:29:17;;;;;;;16.90;14.40;;;;;;;;;;85204;213;3031450;-39
2023/12/01 05:31:59;;;;;;;16.60;13.90;;;;;;;;;;85188;213;3027948;-36
2023/12/01 05:34:42;;;;;;;17.40;14.70;;;;;;;;;;85169;213;3027563;-35
2023/12/01 05:37:27;;;;;;;17.20;14.80;;;;;;;;;;85164;213;3031440;-35
2023/12/01 05:40:05;;;;;;;17.00;14.30;;;;;;;;;;85206;213;3031579;-35
2023/12/01 05:42:43;;;;;;;16.00;14.30;;;;;;;;;;85211;213;3028499;-35
2023/12/01 05:45:23;;;;;;;16.10;14.00;;;;;;;;;;85198;213;3028360;-35
2023/12/01 05:48:06;;;;;;;17.00;14.20;;;;;;;;;;85209;213;3030487;-35
2023/12/01 05:50:48;;;;;;;17.70;14.50;;;;;;;;;;85228;213;3031868;-35
2023/12/01 05:53:28;;;;;;;17.00;14.50;;;;;;;;;;85239;213;3028430;-35
2023/12/01 05:56:08;;;;;;;16.30;14.40;;;;;;;;;;85200;213;3032328;-35
2023/12/01 05:58:48;;;;;;;16.70;14.70;;;;;;;;;;85220;213;3031303;-35
2023/12/01 06:01:28;;;;;;;16.90;14.50;;;;;;;;;;85141;213;3031508;-35
2023/12/01 06:04:07;;;;;;;15.70;14.00;;;;;;;;;;85086;214;3028413;-35
2023/12/01 06:06:45;;;;;;;16.10;13.90;;;;;;;;;;85094;214;3027450;-35
2023/12/01 06:09:28;;;;;;;15.60;13.90;;;;;;;;;;85110;214;3030694;-35
2023/12/01 06:12:06;;;;;;;16.10;13.70;;;;;;;;;;85116;214;3031498;-36
2023/12/01 06:14:47;;;;;;;16.50;14.30;;;;;;;;;;85120;214;3028086;-36
2023/12/01 06:17:24;;;;;;;15.60;13.80;;;;;;;;;;85136;214;3027728;-35
2023/12/01 06:20:16;;;;;;;17.10;14.60;;;;;;;;;;85122;214;3030755;-36
2023/12/01 06:22:56;;;;;;;16.90;14.30;;;;;;;;;;85108;214;3031440;-36
2023/12/01 06:25:38;;;;;;;17.10;14.50;;;;;;;;;;85151;213;3028002;-36
2023/12/01 06:28:22;;;;;;;15.70;13.60;;;;;;;;;;85218;213;3027406;-36
2023/12/01 06:31:02;;;;;;;15.80;14.00;;;;;;;;;;85218;213;3030924;-36
2023/12/01 06:33:43;;;;;;;16.10;14.00;;;;;;;;;;85246;213;3031596;-36
2023/12/01 06:36:28;;;;;;;15.60;13.90;;;;;;;;;;85236;213;3029068;-36
2023/12/01 06:39:10;;;;;;;15.60;13.70;;;;;;;;;;85293;213;3027831;-36
2023/12/01 06:41:48;;;;;;;15.50;13.90;;;;;;;;;;85303;213;3030975;-36
2023/12/01 06:44:30;;;;;;;16.10;14.30;;;;;;;;;;85254;213;3031526;-36
2023/12/01 06:47:10;;;;;;;16.70;14.00;;;;;;;;;;85252;213;3034507;-36
2023/12/01 06:49:50;;;;;;;16.40;14.50;;;;;;;;;;85269;213;3027296;-36
2023/12/01 06:52:34;;;;;;;16.90;14.50;;;;;;;;;;85255;213;3031146;-36
2023/12/01 06:55:16;;;;;;;16.30;14.30;;;;;;;;;;85181;213;3032042;-40
2023/12/01 06:58:03;;;;;;;17.10;14.80;;;;;;;;;;85168;213;3028610;-36
2023/12/01 07:00:48;;;;;;;16.50;14.00;;;;;;;;;;85130;214;3027443;-36
2023/12/01 07:03:29;;;;;;;15.40;13.60;;;;;;;;;;85130;214;3030972;-36
2023/12/01 07:06:11;;;;;;;15.60;13.90;;;;;;;;;;85050;214;3032040;-36
2023/12/01 07:08:51;;;;;;;15.30;13.50;;;;;;;;;;85097;214;3029085;-41
2023/12/01 07:11:34;;;;;;;15.40;13.10;;;;;;;;;;85117;214;3028232;-40
2023/12/01 07:14:13;;;;;;;15.70;13.90;;;;;;;;;;85107;214;3030264;-40
2023/12/01 07:16:57;;;;;;;15.80;13.60;;;;;;;;;;85089;214;3031583;-41
2023/12/01 07:19:40;;;;;;;14.90;13.10;;;;;;;;;;85100;214;3028074;-40
2023/12/01 07:22:22;;;;;;;15.60;14.00;;;;;;;;;;85150;214;3027861;-39
2023/12/01 07:25:03;;;;;;;15.60;13.40;;;;;;;;;;85118;213;3030754;-41
2023/12/01 07:27:43;;;;;;;15.10;13.40;;;;;;;;;;85208;213;3031391;-40
2023/12/01 07:30:25;;;;;;;16.00;13.70;;;;;;;;;;85252;213;3028648;-41
2023/12/01 07:33:07;;;;;;;14.40;12.70;;;;;;;;;;85242;213;3027192;-40
2023/12/01 07:35:46;;;;;;;14.60;12.80;;;;;;;;;;85215;213;3030802;-40
2023/12/01 07:38:26;;;;;;;14.70;12.70;;;;;;;;;;85183;213;3038305;-40
2023/12/01 07:41:07;;;;;;;14.50;12.80;;;;;;;;;;85141;214;3028000;-40
2023/12/01 07:43:44;;;;;;;15.40;13.00;;;;;;;;;;85126;214;3027865;-40
2023/12/01 07:46:23;;;;;;;15.60;13.00;;;;;;;;;;85131;214;3030304;-41
2023/12/01 07:49:11;;;;;;;15.70;13.10;;;;;;;;;;85146;214;3038312;-40
2023/12/01 07:51:55;;;;;;;15.90;12.90;;;;;;;;;;85117;214;3029045;-41
2023/12/01 07:54:35;;;;;;;15.90;13.30;;;;;;;;;;85157;214;3027543;-41
2023/12/01 07:57:20;;;;;;;14.60;13.00;;;;;;;;;;85072;214;3031769;-41
2023/12/01 08:00:04;;;;;;;15.30;12.00;;;;;;;;;;85125;214;3031962;-40
2023/12/01 08:02:44;;;;;;;15.30;12.60;;;;;;;;;;85071;214;3029134;-40
2023/12/01 08:05:23;;;;;;;15.70;13.30;;;;;;;;;;85066;214;3028084;-41
2023/12/01 08:08:03;;;;;;;14.90;12.50;;;;;;;;;;85033;214;3030643;-40
2023/12/01 08:10:43;;;;;;;15.30;12.80;;;;;;;;;;85079;214;3031811;-40
2023/12/01 08:13:24;;;;;;;15.80;12.60;;;;;;;;;;85082;214;3028490;-40
2023/12/01 08:16:05;;;;;;;15.10;12.50;;;;;;;;;;85108;214;3027441;-40
2023/12/01 08:18:48;;;;;;;14.10;12.00;;;;;;;;;;85126;214;3031166;-40
2023/12/01 08:21:31;;;;;;;14.50;12.30;;;;;;;;;;85116;214;3031274;-40
2023/12/01 08:24:11;;;;;;;14.60;12.30;;;;;;;;;;85158;214;3028598;-42
2023/12/01 08:26:51;;;;;;;13.50;11.50;;;;;;;;;;85126;213;3027272;-40
2023/12/01 08:29:32;;;;;;;14.20;12.00;;;;;;;;;;85128;213;3030869;-40
2023/12/01 08:32:12;;;;;;;14.00;11.40;;;;;;;;;;85151;213;3030915;-40
2023/12/01 08:34:51;;;;;;;14.80;11.50;;;;;;;;;;85154;213;3028767;-40
2023/12/01 08:37:33;;;;;;;13.20;11.40;;;;;;;;;;85143;213;3027783;-40
2023/12/01 08:40:12;;;;;;;13.00;11.00;;;;;;;;;;85087;214;3037052;-40
2023/12/01 08:42:54;;;;;;;12.90;11.20;;;;;;;;;;85141;214;3032521;-40
2023/12/01 08:45:33;;;;;;;13.80;11.10;;;;;;;;;;85148;214;3028280;-40
2023/12/01 08:48:15;;;;;;;12.60;11.10;;;;;;;;;;85093;214;3027573;-38
2023/12/01 08:50:54;;;;;;;13.60;11.00;;;;;;;;;;85121;213;3030590;-38
2023/12/01 08:53:35;;;;;;;13.00;10.80;;;;;;;;;;85095;213;3033330;-38
2023/12/01 08:56:18;;;;;;;13.40;10.50;;;;;;;;;;85101;213;3027846;-42
2023/12/01 08:58:55;;;;;;;13.30;11.00;;;;;;;;;;85078;213;3027869;-38
2023/12/01 09:01:33;;;;;;;13.20;10.70;;;;;;;;;;85093;213;3030845;-38
2023/12/01 09:04:15;;;;;;;12.80;10.60;;;;;;;;;;85057;214;3031469;-38
2023/12/01 09:06:54;;;;;;;13.40;10.80;;;;;;;;;;85089;213;3028217;-38
2023/12/01 09:09:35;;;;;;;12.30;10.50;;;;;;;;;;85041;214;3027821;-37
2023/12/01 09:12:13;;;;;;;12.70;10.50;;;;;;;;;;85098;213;3030614;-38
2023/12/01 09:14:52;;;;;;;13.10;10.60;;;;;;;;;;85084;213;3031959;-37
2023/12/01 09:17:30;;;;;;;13.40;10.50;;;;;;;;;;85137;213;3028339;-37
2023/12/01 09:20:13;;;;;;;12.60;10.30;;;;;;;;;;85191;213;3027409;-37
2023/12/01 09:22:50;;;;;;;13.30;10.60;;;;;;;;;;85091;214;3030998;-38
2023/12/01 09:25:28;;;;;;;12.70;10.70;;;;;;;;;;85150;213;3031789;-37
2023/12/01 09:28:07;;;;;;;12.50;10.40;;;;;;;;;;85133;213;3028514;-39
2023/12/01 09:30:46;;;;;;;12.10;10.20;;;;;;;;;;85125;213;3027282;-37
2023/12/01 09:33:27;;;;;;;12.60;10.30;;;;;;;;;;85142;213;3030511;-37
2023/12/01 09:36:07;;;;;;;12.00;9.80;;;;;;;;;;85137;213;3031588;-36
2023/12/01 09:38:49;;;;;;;11.80;9.60;;;;;;;;;;85134;213;3028385;-36
2023/12/01 09:41:33;;;;;;;11.10;9.70;;;;;;;;;;85140;213;3035570;-36
2023/12/01 09:44:11;;;;;;;11.40;9.60;;;;;;;;;;85195;213;3031105;-36
2023/12/01 09:46:53;;;;;;;12.10;10.20;;;;;;;;;;85107;214;3033151;-38
2023/12/01 09:49:34;;;;;;;12.40;10.30;;;;;;;;;;85153;213;3027798;-37
2023/12/01 09:52:12;;;;;;;11.00;9.80;;;;;;;;;;85249;213;3027558;-37
2023/12/01 09:54:50;;;;;;;12.00;9.70;;;;;;;;;;85153;213;3031854;-37
2023/12/01 09:57:47;;;;;;;11.30;9.50;;;;;;;;;;85174;213;3031129;-37
2023/12/01 10:00:31;;;;;;;11.80;9.70;;;;;;;;;;85114;213;3027993;-37
2023/12/01 10:03:12;;;;;;;12.00;10.20;;;;;;;;;;85258;213;3028144;-37
2023/12/01 10:05:55;;;;;;;12.40;9.60;;;;;;;;;;85234;213;3030429;-37
2023/12/01 10:08:36;;;;;;;11.70;9.90;;;;;;;;;;85163;214;3031253;-37
2023/12/01 10:11:27;;;;;;;12.70;9.70;;;;;;;;;;85171;213;3028419;-37
2023/12/01 10:14:12;;;;;;;12.00;9.80;;;;;;;;;;85203;213;3028566;-41
2023/12/01 10:16:59;;;;;;;11.60;9.60;;;;;;;;;;85111;213;3030376;-43
2023/12/01 10:19:52;;;;;;;11.60;9.50;;;;;;;;;;85172;213;3031699;-36
2023/12/01 10:22:32;;;;;;;12.40;10.10;;;;;;;;;;85140;214;3033665;-37
2023/12/01 10:25:15;;;;;;;11.40;9.60;;;;;;;;;;85223;213;3027043;-38
2023/12/01 10:28:00;;;;;;;12.40;10.20;;;;;;;;;;85182;213;3031377;-38
2023/12/01 10:30:37;;;;;;;11.50;9.40;;;;;;;;;;85183;213;3031245;-37
2023/12/01 10:33:15;;;;;;;11.30;9.00;;;;;;;;;;85111;213;3028313;-37
2023/12/01 10:36:08;;;;;;;12.00;9.70;;;;;;;;;;85142;213;3027607;-38
2023/12/01 10:38:47;;;;;;;11.70;9.70;;;;;;;;;;85138;213;3030700;-37
2023/12/01 10:41:31;;;;;;;11.40;9.60;;;;;;;;;;85119;213;3031400;-37
2023/12/01 10:44:14;;;;;;;10.70;8.90;;;;;;;;;;85157;213;3028421;-37
2023/12/01 10:46:53;;;;;;;12.20;9.70;;;;;;;;;;85131;213;3028074;-37
2023/12/01 10:49:32;;;;;;;12.20;9.60;;;;;;;;;;85186;214;3030904;-36
2023/12/01 10:52:13;;;;;;;12.20;9.60;;;;;;;;;;85332;213;3031199;-36
2023/12/01 10:54:51;;;;;;;11.90;9.60;;;;;;;;;;85234;213;3027918;-36
2023/12/01 10:57:38;;;;;;;12.70;9.20;;;;;;;;;;85159;213;3027122;-36
2023/12/01 11:00:29;;;;;;;10.90;9.00;;;;;;;;;;85153;213;3030139;-37
2023/12/01 11:03:13;;;;;;;11.50;9.40;;;;;;;;;;85203;213;3031328;-37
2023/12/01 11:05:56;;;;;;;11.40;9.30;;;;;;;;;;85138;213;3028380;-37
2023/12/01 11:08:50;;;;;;;11.20;9.10;;;;;;;;;;85173;213;3027104;-36
2023/12/01 11:11:44;;;;;;;11.60;9.40;;;;;;;;;;85162;213;3031260;-36
2023/12/01 11:14:31;;;;;;;11.60;9.60;;;;;;;;;;85093;213;3034066;-36
2023/12/01 11:17:14;;;;;;;11.50;9.40;;;;;;;;;;85147;213;3028851;-36
2023/12/01 11:19:59;;;;;;;11.90;9.60;;;;;;;;;;85151;213;3027208;-37
2023/12/01 11:22:40;;;;;;;11.70;9.60;;;;;;;;;;85169;213;3030671;-38
2023/12/01 11:25:44;;;;;;;11.80;9.20;;;;;;;;;;85160;213;3031187;-35
2023/12/01 11:28:39;;;;;;;12.90;9.90;;;;;;;;;;85223;213;3028647;-35
2023/12/01 11:31:22;;;;;;;12.80;9.40;;;;;;;;;;85234;213;3028707;-33
2023/12/01 11:34:01;;;;;;;11.30;9.10;;;;;;;;;;85272;213;3036026;-34
2023/12/01 11:36:43;;;;;;;11.00;9.10;;;;;;;;;;85222;213;3032214;-34
2023/12/01 11:39:27;;;;;;;11.80;9.50;;;;;;;;;;85220;213;3028867;-34
2023/12/01 11:42:19;;;;;;;11.40;9.50;;;;;;;;;;85120;213;3028688;-34
2023/12/01 11:45:04;;;;;;;11.10;9.30;;;;;;;;;;85193;213;3030650;-34
2023/12/01 11:47:45;;;;;;;11.70;9.20;;;;;;;;;;85226;213;3031766;-34
2023/12/01 11:50:27;;;;;;;12.30;9.40;;;;;;;;;;85202;213;3028829;-34
2023/12/01 11:53:05;;;;;;;10.80;9.00;;;;;;;;;;85280;213;3027908;-34
2023/12/01 11:55:43;;;;;;;11.70;9.30;;;;;;;;;;85235;214;3030650;-34
2023/12/01 11:58:27;;;;;;;11.70;9.40;;;;;;;;;;85241;213;3032082;-34
2023/12/01 12:01:08;;;;;;;11.80;9.80;;;;;;;;;;85192;213;3027859;-34
2023/12/01 12:03:45;;;;;;;11.60;9.30;;;;;;;;;;85229;213;3027611;-34
2023/12/01 12:06:25;;;;;;;11.40;9.10;;;;;;;;;;85305;213;3031138;-35
2023/12/01 12:09:08;;;;;;;11.50;9.20;;;;;;;;;;85234;213;3032255;-34
2023/12/01 12:11:50;;;;;;;10.50;8.80;;;;;;;;;;85245;213;3028810;-34
2023/12/01 12:14:32;;;;;;;11.40;9.00;;;;;;;;;;85257;214;3027789;-34
2023/12/01 12:17:15;;;;;;;11.20;9.00;;;;;;;;;;85202;213;3030530;-35
2023/12/01 12:19:53;;;;;;;11.90;9.10;;;;;;;;;;85173;213;3031962;-35
2023/12/01 12:22:38;;;;;;;12.80;9.10;;;;;;;;;;85180;213;3028176;-33
2023/12/01 12:25:16;;;;;;;11.40;8.80;;;;;;;;;;84317;214;3033499;-33
2023/12/01 12:27:56;;;;;;;11.80;9.20;;;;;;;;;;85214;213;3030845;-34
2023/12/01 12:30:41;;;;;;;11.70;9.20;;;;;;;;;;85177;214;3031943;-35
2023/12/01 12:33:22;;;;;;;11.40;9.80;;;;;;;;;;85143;213;3028630;-35
2023/12/01 12:36:03;;;;;;;11.80;9.40;;;;;;;;;;85179;213;3027397;-33
2023/12/01 12:38:44;;;;;;;11.30;9.30;;;;;;;;;;85257;213;3030346;-33
2023/12/01 12:41:31;;;;;;;12.20;9.60;;;;;;;;;;85205;214;3031220;-34
2023/12/01 12:44:11;;;;;;;11.60;9.30;;;;;;;;;;85149;213;3028793;-34
2023/12/01 12:47:04;;;;;;;11.00;8.80;;;;;;;;;;85206;213;3027212;-34
2023/12/01 12:49:44;;;;;;;10.90;8.90;;;;;;;;;;85233;213;3030818;-34
2023/12/01 12:52:24;;;;;;;12.50;9.00;;;;;;;;;;85153;213;3033586;-33
2023/12/01 12:55:07;;;;;;;12.40;10.00;;;;;;;;;;85281;213;3029016;-36
2023/12/01 12:57:44;;;;;;;12.30;9.70;;;;;;;;;;85161;213;3028478;-36
2023/12/01 13:00:22;;;;;;;11.20;9.80;;;;;;;;;;85164;213;3030486;-36
2023/12/01 13:03:01;;;;;;;12.10;9.70;;;;;;;;;;85151;213;3031954;-35
2023/12/01 13:05:42;;;;;;;11.70;9.30;;;;;;;;;;85191;213;3030808;-34
2023/12/01 13:08:19;;;;;;;11.50;9.70;;;;;;;;;;85159;213;3027399;-36
2023/12/01 13:10:59;;;;;;;11.70;10.00;;;;;;;;;;85155;213;3029662;-35
2023/12/01 13:13:38;;;;;;;11.70;9.60;;;;;;;;;;85185;213;3031478;-35
2023/12/01 13:16:21;;;;;;;12.80;10.10;;;;;;;;;;85241;213;3036756;-34
2023/12/01 13:19:01;;;;;;;12.00;10.00;;;;;;;;;;85251;213;3027864;-34
2023/12/01 13:21:42;;;;;;;12.60;10.30;;;;;;;;;;85147;213;3031052;-34
2023/12/01 13:24:21;;;;;;;12.30;10.10;;;;;;;;;;85093;214;3031398;-34
2023/12/01 13:27:03;;;;;;;12.10;10.10;;;;;;;;;;85112;214;3028268;-35
2023/12/01 13:29:45;;;;;;;12.10;9.60;;;;;;;;;;85178;214;3027970;-35
2023/12/01 13:32:24;;;;;;;12.90;10.70;;;;;;;;;;85098;214;3030752;-35
2023/12/01 13:35:03;;;;;;;11.90;10.00;;;;;;;;;;85107;214;3032460;-35
2023/12/01 13:37:44;;;;;;;12.40;10.00;;;;;;;;;;85125;214;3028312;-35
2023/12/01 13:40:24;;;;;;;12.80;10.20;;;;;;;;;;85143;214;3027901;-35
2023/12/01 13:43:04;;;;;;;12.60;10.50;;;;;;;;;;85137;214;3031294;-35
2023/12/01 13:45:42;;;;;;;12.40;10.10;;;;;;;;;;85149;214;3031259;-34
2023/12/01 13:48:21;;;;;;;13.10;10.40;;;;;;;;;;85134;214;3028736;-35
2023/12/01 13:51:01;;;;;;;12.00;10.00;;;;;;;;;;85170;214;3028015;-35
2023/12/01 13:53:41;;;;;;;12.40;10.30;;;;;;;;;;85190;214;3031094;-35
2023/12/01 13:56:19;;;;;;;11.80;10.10;;;;;;;;;;85155;214;3031703;-35
2023/12/01 13:58:59;;;;;;;12.50;10.50;;;;;;;;;;85167;214;3029499;-35
2023/12/01 14:01:40;;;;;;;12.00;10.10;;;;;;;;;;85191;214;3027199;-35
2023/12/01 14:04:22;;;;;;;13.10;10.50;;;;;;;;;;85178;214;3031071;-35
2023/12/01 14:07:05;;;;;;;12.20;10.00;;;;;;;;;;85100;214;3031570;-35
2023/12/01 14:09:45;;;;;;;12.10;10.20;;;;;;;;;;85154;214;3028677;-35
2023/12/01 14:12:23;;;;;;;11.70;10.00;;;;;;;;;;85179;214;3027940;-35
2023/12/01 14:15:03;;;;;;;12.00;10.30;;;;;;;;;;85126;214;3031827;-35
2023/12/01 14:17:43;;;;;;;13.00;10.30;;;;;;;;;;85125;214;3039682;-34
2023/12/01 14:20:30;;;;;;;12.30;9.90;;;;;;;;;;85189;214;3028892;-34
2023/12/01 14:23:14;;;;;;;13.00;10.20;;;;;;;;;;85090;214;3027253;-33
2023/12/01 14:25:53;;;;;;;12.60;10.20;;;;;;;;;;85129;214;3031546;-35
2023/12/01 14:28:33;;;;;;;12.20;9.90;;;;;;;;;;85217;214;3032064;-34
2023/12/01 14:31:14;;;;;;;11.70;10.00;;;;;;;;;;85318;214;3028939;-35
2023/12/01 14:33:56;;;;;;;12.10;10.10;;;;;;;;;;85183;214;3027358;-35
2023/12/01 14:36:33;;;;;;;12.40;10.70;;;;;;;;;;85087;214;3030766;-35
2023/12/01 14:39:14;;;;;;;12.40;9.90;;;;;;;;;;85122;214;3031378;-36
2023/12/01 14:42:01;;;;;;;13.00;10.70;;;;;;;;;;85141;214;3027987;-35
2023/12/01 14:44:41;;;;;;;13.20;10.70;;;;;;;;;;85165;214;3027476;-34
2023/12/01 14:47:24;;;;;;;13.70;10.60;;;;;;;;;;85158;214;3030702;-33
2023/12/01 14:50:06;;;;;;;13.10;10.70;;;;;;;;;;85081;214;3031514;-34
2023/12/01 14:52:48;;;;;;;12.40;10.30;;;;;;;;;;85134;214;3029561;-36
2023/12/01 14:55:30;;;;;;;12.70;10.70;;;;;;;;;;85119;214;3027141;-36
2023/12/01 14:58:08;;;;;;;13.20;11.40;;;;;;;;;;85102;214;3030553;-37
2023/12/01 15:00:48;;;;;;;13.70;11.10;;;;;;;;;;85107;214;3032237;-38
2023/12/01 15:03:30;;;;;;;14.20;11.50;;;;;;;;;;85122;214;3028756;-36
2023/12/01 15:06:11;;;;;;;13.50;11.10;;;;;;;;;;85096;214;3028374;-36
2023/12/01 15:08:53;;;;;;;13.80;11.00;;;;;;;;;;85265;214;3037567;-36
2023/12/01 15:11:30;;;;;;;13.30;10.60;;;;;;;;;;85100;214;3031555;-36
2023/12/01 15:14:08;;;;;;;12.70;10.90;;;;;;;;;;85085;214;3029914;-36
2023/12/01 15:16:52;;;;;;;12.80;10.50;;;;;;;;;;85067;214;3027544;-36
2023/12/01 15:19:29;;;;;;;13.00;10.80;;;;;;;;;;85108;214;3037297;-36
2023/12/01 15:22:09;;;;;;;13.30;10.90;;;;;;;;;;85097;214;3031628;-34
2023/12/01 15:24:49;;;;;;;14.40;11.40;;;;;;;;;;85133;214;3028615;-34
2023/12/01 15:27:27;;;;;;;13.60;11.40;;;;;;;;;;85079;214;3027761;-36